CheckWX is a tool to help pilots better visualize weather data.  It is not intended as a substitute for an official pre-flight weather briefing.

11:56:21 UTC

FMNA METAR
Arrachart Airport
Madagascar
Current

56 mins ago

FMNA 121100Z 14010KT 9999 FEW023 33/21 Q1008
Observed
Nov-12 @ 11:00 UTC
Wind
  • 140° at 10 KTS
Visibility
10,000+ meters
Flight Rules
VFR
Cloud Levels
  • Few at 2,300' AGL
Temperature
33°C / 91°F
Dewpoint
21°C / 70°F
Heat Index
36°C / 96°F
Humidity
49%
Altimeter
29.76" Hg
Pressure
1007.92 hPa
Previous

2 hours ago

FMNA 121000Z 14010KT 9999 FEW023 34/21 Q1008
Observed
Nov-12 @ 10:00 UTC
Wind
  • 140° at 10 KTS
Visibility
10,000+ meters
Flight Rules
VFR
Cloud Levels
  • Few at 2,300' AGL
Temperature
34°C / 93°F
Dewpoint
21°C / 70°F
Heat Index
37°C / 99°F
Humidity
47%
Altimeter
29.76" Hg
Pressure
1007.92 hPa
Previous

3 hours ago

FMNA 120900Z 14010KT 9999 FEW023 34/19 Q1009
Observed
Nov-12 @ 09:00 UTC
Wind
  • 140° at 10 KTS
Visibility
10,000+ meters
Flight Rules
VFR
Cloud Levels
  • Few at 2,300' AGL
Temperature
34°C / 93°F
Dewpoint
19°C / 66°F
Heat Index
36°C / 96°F
Humidity
41%
Altimeter
29.79" Hg
Pressure
1008.92 hPa